Time;durP1;ratioP1;P1;durP2;ratioP2;P2;SDS_P1;SDS_P2;PMS_P1;PMS_P2;Temp;Humidity;BMP_temperature;BMP_pressure;BME280_temperature;BME280_humidity;BME280_pressure;Samples;Min_cycle;Max_cycle;Signal;HPM_P1;HPM_P2
2021/07/29 00:05:49;;;;;;;12.47;6.85;;;;;;;20.85;88.90;98722.55;4250682;81;21066;-83
2021/07/29 00:11:51;;;;;;;13.45;7.80;;;;;;;20.84;89.04;98715.44;4248311;82;21016;-81
2021/07/29 00:23:53;;;;;;;20.90;8.50;;;;;;;20.79;89.48;98707.66;4286832;81;20976;-81
2021/07/29 00:29:56;;;;;;;14.60;8.33;;;;;;;20.75;89.70;98702.84;4318292;81;20998;-81
2021/07/29 00:35:57;;;;;;;13.88;8.20;;;;;;;20.78;89.95;98708.27;4254791;81;20993;-81
2021/07/29 00:42:03;;;;;;;13.22;8.33;;;;;;;20.73;89.97;98713.03;4272161;81;21053;-82
2021/07/29 00:48:05;;;;;;;19.80;10.10;;;;;;;20.76;90.24;98719.09;4276816;81;21448;-83
2021/07/29 00:54:07;;;;;;;17.00;10.50;;;;;;;20.77;90.45;98720.63;4275776;81;21051;-83
2021/07/29 01:00:09;;;;;;;21.45;11.43;;;;;;;20.78;90.71;98731.16;4264993;81;21478;-84
2021/07/29 01:06:10;;;;;;;17.92;10.82;;;;;;;20.72;90.97;98728.78;4240840;81;21001;-82
2021/07/29 01:12:12;;;;;;;20.15;13.55;;;;;;;20.65;91.25;98724.84;4268094;81;20986;-82
2021/07/29 01:18:13;;;;;;;20.10;13.05;;;;;;;20.67;91.68;98725.17;4275883;82;21018;-82
2021/07/29 01:24:15;;;;;;;22.25;12.78;;;;;;;20.67;91.84;98723.15;4257528;81;20990;-82
2021/07/29 01:30:16;;;;;;;17.80;12.88;;;;;;;20.70;92.06;98725.06;4271000;81;20982;-83
2021/07/29 01:36:17;;;;;;;21.05;13.80;;;;;;;20.71;92.18;98725.22;4266996;81;20990;-82
2021/07/29 01:42:19;;;;;;;20.72;13.15;;;;;;;20.72;92.27;98723.98;4276867;81;20975;-83
2021/07/29 01:48:20;;;;;;;21.02;13.50;;;;;;;20.72;92.43;98722.59;4321488;81;21018;-82
2021/07/29 01:54:21;;;;;;;20.00;13.58;;;;;;;20.74;92.59;98720.75;4282673;81;21006;-83
2021/07/29 02:00:23;;;;;;;21.30;15.63;;;;;;;20.73;92.66;98728.94;4309291;81;21628;-82
2021/07/29 02:06:24;;;;;;;23.75;14.70;;;;;;;20.71;92.79;98741.12;4227519;81;20977;-82
2021/07/29 02:12:25;;;;;;;18.87;13.13;;;;;;;20.67;92.89;98727.95;4284293;81;20971;-81
2021/07/29 02:18:26;;;;;;;23.38;15.95;;;;;;;20.65;92.80;98740.92;4276189;81;21578;-81
2021/07/29 02:24:28;;;;;;;24.15;14.95;;;;;;;20.62;92.86;98742.42;4285333;81;21486;-82
2021/07/29 02:30:29;;;;;;;21.70;15.72;;;;;;;20.59;93.00;98751.66;4268688;81;21367;-81
2021/07/29 02:36:30;;;;;;;20.32;14.73;;;;;;;20.58;92.96;98748.72;4269688;81;21423;-81
2021/07/29 02:42:31;;;;;;;18.60;14.95;;;;;;;20.56;93.26;98743.61;4270741;81;21011;-80
2021/07/29 02:48:33;;;;;;;24.77;15.30;;;;;;;20.56;93.35;98737.27;4275910;81;21047;-81
2021/07/29 02:54:35;;;;;;;23.15;14.35;;;;;;;20.50;93.43;98732.11;4259071;81;21481;-81
2021/07/29 03:00:36;;;;;;;26.65;15.88;;;;;;;20.53;93.59;98731.20;4245233;81;21340;-81
2021/07/29 03:06:41;;;;;;;22.93;15.83;;;;;;;20.53;93.66;98733.98;4267157;81;21483;-80
2021/07/29 03:12:42;;;;;;;18.73;14.45;;;;;;;20.50;93.70;98723.77;4279812;81;21077;-83
2021/07/29 03:18:43;;;;;;;25.12;15.18;;;;;;;20.45;93.84;98733.45;4282358;81;21535;-80
2021/07/29 03:24:45;;;;;;;20.57;15.58;;;;;;;20.42;93.88;98731.56;4274538;81;21490;-80
2021/07/29 03:30:47;;;;;;;22.42;16.15;;;;;;;20.44;93.94;98738.06;4262377;81;21045;-80
2021/07/29 03:36:48;;;;;;;18.80;15.18;;;;;;;20.41;93.99;98743.10;4265434;81;21056;-80
2021/07/29 03:42:49;;;;;;;21.95;15.75;;;;;;;20.38;94.17;98745.39;4275703;81;21021;-80
2021/07/29 03:48:51;;;;;;;18.50;14.38;;;;;;;20.34;94.28;98747.52;4268792;81;21648;-80
2021/07/29 03:54:52;;;;;;;22.07;15.50;;;;;;;20.35;94.36;98754.02;4271033;81;21569;-80
2021/07/29 04:00:56;;;;;;;19.55;14.45;;;;;;;20.32;94.43;98761.86;4260693;81;21032;-80
2021/07/29 04:06:58;;;;;;;20.00;14.75;;;;;;;20.31;94.50;98756.75;4273607;81;21003;-82
2021/07/29 04:12:59;;;;;;;23.57;14.30;;;;;;;20.26;94.43;98770.59;4260740;81;22313;-80
2021/07/29 04:19:00;;;;;;;19.42;12.85;;;;;;;20.22;94.46;98774.08;4288848;81;21069;-80
2021/07/29 04:25:02;;;;;;;18.80;12.43;;;;;;;20.23;94.57;98779.03;4287949;81;21459;-79
2021/07/29 04:31:03;;;;;;;18.25;13.43;;;;;;;20.22;94.41;98782.41;4254553;81;34876;-80
2021/07/29 04:37:05;;;;;;;18.15;11.43;;;;;;;20.23;94.50;98784.75;4038381;86;21090;-80
2021/07/29 04:43:06;;;;;;;19.90;14.23;;;;;;;20.25;94.50;98791.25;4117371;85;21123;-81
2021/07/29 04:49:10;;;;;;;14.53;12.33;;;;;;;20.21;94.20;98796.16;4123039;85;21033;-80
2021/07/29 04:55:11;;;;;;;24.80;14.25;;;;;;;20.22;94.60;98796.94;4022484;85;21032;-80
2021/07/29 05:01:12;;;;;;;20.57;14.80;;;;;;;20.23;94.59;98806.98;4046049;85;21550;-80
2021/07/29 05:07:14;;;;;;;18.00;12.50;;;;;;;20.15;94.32;98802.10;4011504;86;21036;-80
2021/07/29 05:13:15;;;;;;;16.80;11.57;;;;;;;20.15;94.52;98806.27;4018327;86;21134;-79
2021/07/29 05:19:17;;;;;;;17.70;10.45;;;;;;;20.18;94.79;98809.55;3964599;87;21072;-80
2021/07/29 05:25:27;;;;;;;13.95;11.08;;;;;;;20.23;94.69;98809.61;3944452;87;21084;-79
2021/07/29 05:31:21;;;;;;;12.82;10.35;;;;;;;20.16;94.22;98801.66;4038856;86;21075;-80
2021/07/29 05:37:22;;;;;;;22.45;13.10;;;;;;;20.20;94.84;98800.92;3994952;86;21047;-79
2021/07/29 05:43:24;;;;;;;18.62;12.10;;;;;;;20.33;94.93;98805.10;3994681;86;21574;-81
2021/07/29 05:49:25;;;;;;;19.20;12.05;;;;;;;20.38;94.85;98802.38;4041472;85;21058;-80
2021/07/29 05:55:26;;;;;;;15.20;11.33;;;;;;;20.39;94.66;98813.05;3987025;86;21075;-81
2021/07/29 06:01:27;;;;;;;12.80;10.65;;;;;;;20.36;94.23;98817.36;4054573;85;21034;-80
2021/07/29 06:07:30;;;;;;;23.92;13.65;;;;;;;20.38;94.81;98814.89;4004548;85;21086;-80
2021/07/29 06:13:32;;;;;;;21.55;14.95;;;;;;;20.38;94.36;98818.45;4047346;86;21065;-80
2021/07/29 06:19:33;;;;;;;20.52;14.60;;;;;;;20.34;94.34;98826.73;4034657;85;21173;-80
2021/07/29 06:25:34;;;;;;;22.48;13.83;;;;;;;20.40;94.29;98827.73;3982529;86;21105;-81
2021/07/29 06:31:35;;;;;;;16.05;12.90;;;;;;;20.50;94.21;98840.55;4030795;85;21137;-81
2021/07/29 06:37:37;;;;;;;13.43;11.00;;;;;;;20.57;94.50;98834.14;3984471;86;21040;-81
2021/07/29 06:43:39;;;;;;;16.37;9.38;;;;;;;20.67;94.23;98842.75;4055090;85;21045;-83
2021/07/29 06:49:40;;;;;;;13.18;8.80;;;;;;;20.72;93.52;98837.27;4138509;84;21076;-81
2021/07/29 06:55:41;;;;;;;14.75;7.58;;;;;;;20.70;93.85;98843.27;4129135;85;21452;-81
2021/07/29 07:01:42;;;;;;;10.48;7.30;;;;;;;20.68;93.33;98848.49;4122849;85;21010;-81
2021/07/29 07:07:44;;;;;;;9.35;6.75;;;;;;;20.61;92.85;98844.53;4108886;85;21051;-81
2021/07/29 07:13:47;;;;;;;8.90;6.40;;;;;;;20.70;92.77;98849.44;4126601;85;21102;-81
2021/07/29 07:19:49;;;;;;;12.85;6.25;;;;;;;20.86;92.13;98845.91;4093714;85;21047;-81
2021/07/29 07:25:50;;;;;;;8.70;6.35;;;;;;;21.09;92.10;98849.76;4115514;85;21046;-81
2021/07/29 07:31:52;;;;;;;10.08;6.92;;;;;;;21.33;91.91;98850.91;4120183;85;21066;-81
2021/07/29 07:37:53;;;;;;;7.80;5.83;;;;;;;21.69;91.56;98844.26;4128038;85;21579;-80
2021/07/29 07:43:54;;;;;;;8.08;5.37;;;;;;;21.93;90.17;98848.80;4143754;84;21035;-80
2021/07/29 07:49:56;;;;;;;7.95;5.78;;;;;;;22.00;89.53;98849.16;4117924;85;21089;-82
2021/07/29 07:56:02;;;;;;;10.53;5.95;;;;;;;21.97;88.70;98843.09;4018590;86;21491;-81
2021/07/29 08:02:04;;;;;;;7.17;4.60;;;;;;;22.11;88.82;98845.35;4136253;84;21034;-83
2021/07/29 08:08:10;;;;;;;7.22;5.40;;;;;;;22.72;88.37;98843.34;4146419;85;21313;-80
2021/07/29 08:14:11;;;;;;;7.03;4.60;;;;;;;23.26;86.82;98837.80;4133105;85;21581;-82
2021/07/29 08:20:13;;;;;;;6.25;4.40;;;;;;;23.44;84.77;98844.17;4131996;85;21652;-82
2021/07/29 08:26:20;;;;;;;5.62;4.35;;;;;;;23.66;84.30;98842.63;4113894;85;21085;-81
2021/07/29 08:32:21;;;;;;;;;;;;;;;23.75;83.19;98830.82;4148462;83;21630;-81
2021/07/29 08:38:23;;;;;;;7.62;5.40;;;;;;;23.45;80.67;98834.54;4201169;83;20141;-81
2021/07/29 08:44:24;;;;;;;7.20;4.87;;;;;;;23.22;81.15;98835.87;4192103;84;22192;-83
2021/07/29 08:50:25;;;;;;;10.58;5.70;;;;;;;22.98;80.14;98836.31;4178472;84;21088;-82
2021/07/29 08:56:28;;;;;;;11.22;5.60;;;;;;;23.01;80.03;98836.78;4155083;84;21076;-82
2021/07/29 09:02:30;;;;;;;9.33;5.58;;;;;;;23.20;80.05;98834.19;4197316;83;21031;-82
2021/07/29 09:08:47;;;;;;;8.03;5.05;;;;;;;23.45;78.85;98833.14;4189526;83;21047;-83
2021/07/29 09:14:51;;;;;;;7.92;4.72;;;;;;;23.63;78.17;98828.19;4168226;84;21115;-82
2021/07/29 09:21:12;;;;;;;10.35;5.15;;;;;;;23.90;77.41;98828.17;4199190;84;22157;-82
2021/07/29 09:27:15;;;;;;;11.15;5.67;;;;;;;24.16;76.87;98827.98;4189545;84;21060;-82
2021/07/29 09:33:17;;;;;;;7.22;4.90;;;;;;;24.71;76.73;98810.41;4188780;84;21008;-84
2021/07/29 09:39:22;;;;;;;7.95;5.58;;;;;;;25.16;74.37;98814.33;4185298;84;21084;-83
2021/07/29 09:45:32;;;;;;;6.17;5.22;;;;;;;25.60;72.12;98805.47;4197222;84;21179;-84
2021/07/29 09:51:35;;;;;;;5.25;4.67;;;;;;;26.17;71.94;98803.98;4204938;83;21058;-83
2021/07/29 09:57:36;;;;;;;11.68;5.35;;;;;;;26.53;71.20;98801.41;4216301;84;21018;-82
2021/07/29 10:03:43;;;;;;;6.00;5.00;;;;;;;27.02;69.15;98804.18;4201284;83;21034;-83
2021/07/29 10:09:47;;;;;;;5.55;4.97;;;;;;;27.41;68.02;98804.86;4206709;84;21011;-83
2021/07/29 10:15:48;;;;;;;11.25;5.08;;;;;;;27.52;66.94;98796.56;4196343;83;21572;-84
2021/07/29 10:21:49;;;;;;;6.15;4.95;;;;;;;27.79;66.34;98790.31;4190093;84;21562;-83
2021/07/29 10:28:22;;;;;;;7.58;4.85;;;;;;;27.73;64.96;98788.09;4196679;83;21018;-84
2021/07/29 10:34:30;;;;;;;5.90;5.10;;;;;;;27.21;64.33;98778.77;4196649;83;21090;-82
2021/07/29 10:40:39;;;;;;;7.22;5.72;;;;;;;27.05;64.34;98773.70;4126682;84;21352;-82
2021/07/29 10:47:01;;;;;;;7.15;5.37;;;;;;;26.66;64.36;98775.98;4040715;86;21153;-83
2021/07/29 10:53:03;;;;;;;6.62;5.60;;;;;;;26.60;64.93;98777.91;4119978;84;21068;-84
2021/07/29 10:59:04;;;;;;;8.60;6.45;;;;;;;27.08;63.25;98776.31;4093203;84;21564;-83
2021/07/29 11:05:09;;;;;;;5.90;4.62;;;;;;;27.32;62.59;98769.09;4123354;84;21543;-82
2021/07/29 11:11:10;;;;;;;7.37;5.90;;;;;;;27.73;63.34;98767.77;4121757;84;21061;-84
2021/07/29 11:17:11;;;;;;;7.37;5.33;;;;;;;28.53;61.51;98760.47;4093306;84;21114;-84
2021/07/29 11:23:34;;;;;;;5.75;4.45;;;;;;;29.28;58.52;98745.00;4110361;85;21046;-83
2021/07/29 11:29:54;;;;;;;6.75;4.08;;;;;;;29.78;58.48;98748.11;4089154;85;21703;-84
2021/07/29 11:36:08;;;;;;;10.70;4.78;;;;;;;30.32;56.83;98751.52;4119657;84;21051;-84
2021/07/29 11:42:11;;;;;;;6.72;3.67;;;;;;;30.33;56.59;98748.17;4109117;83;21540;-84
2021/07/29 11:48:24;;;;;;;6.60;4.47;;;;;;;30.53;55.48;98738.01;4102053;84;21072;-85
2021/07/29 11:54:26;;;;;;;6.00;3.72;;;;;;;30.58;54.50;98749.17;4007666;86;21083;-85
2021/07/29 12:00:29;;;;;;;5.75;3.75;;;;;;;30.67;53.91;98743.23;4030505;85;21060;-85
2021/07/29 12:06:30;;;;;;;7.60;3.40;;;;;;;30.42;52.90;98739.44;4091464;85;21543;-84
2021/07/29 12:12:32;;;;;;;6.00;3.52;;;;;;;30.14;52.38;98745.70;4097305;84;21136;-85
2021/07/29 12:18:33;;;;;;;3.15;2.80;;;;;;;29.68;50.86;98729.88;4052586;84;21072;-85
2021/07/29 12:24:47;;;;;;;3.62;2.77;;;;;;;29.19;51.65;98728.31;4092361;84;21072;-85
2021/07/29 12:30:58;;;;;;;6.47;2.92;;;;;;;28.69;50.19;98727.40;4107205;84;21086;-83
2021/07/29 12:36:59;;;;;;;3.77;3.33;;;;;;;28.33;50.14;98726.00;4079225;85;21091;-85
2021/07/29 12:43:23;;;;;;;7.33;2.92;;;;;;;28.09;50.97;98721.33;4180052;83;21075;-86
2021/07/29 12:49:28;;;;;;;3.10;2.50;;;;;;;27.80;50.25;98713.87;4199024;83;21028;-85
2021/07/29 12:55:37;;;;;;;5.92;2.70;;;;;;;27.54;49.78;98722.34;4181349;84;21035;-84
2021/07/29 13:01:39;;;;;;;2.98;2.67;;;;;;;27.33;50.06;98720.05;4198195;83;21104;-84
2021/07/29 13:07:40;;;;;;;5.22;2.47;;;;;;;27.17;49.64;98715.75;4196873;83;20999;-84
2021/07/29 13:13:43;;;;;;;4.08;2.67;;;;;;;27.00;50.38;98714.78;4216533;84;21054;-84
2021/07/29 13:19:45;;;;;;;5.22;2.60;;;;;;;26.93;49.81;98707.42;4192224;84;21019;-84
2021/07/29 13:25:49;;;;;;;5.15;2.85;;;;;;;26.78;50.72;98703.27;4190492;83;21042;-84
2021/07/29 13:32:04;;;;;;;3.70;3.10;;;;;;;26.72;50.98;98694.66;4095218;84;21552;-89
2021/07/29 13:38:05;;;;;;;6.00;2.30;;;;;;;26.67;50.96;98694.69;4166317;83;21043;-84
2021/07/29 13:44:21;;;;;;;5.90;2.67;;;;;;;26.63;51.47;98678.67;4200662;84;20956;-83
2021/07/29 13:50:30;;;;;;;5.60;2.65;;;;;;;26.64;51.62;98673.87;4191699;84;21091;-84
2021/07/29 13:56:32;;;;;;;3.50;2.83;;;;;;;26.58;51.14;98673.75;4193037;84;21043;-84
2021/07/29 14:02:35;;;;;;;5.72;3.08;;;;;;;26.54;51.01;98676.00;4195224;84;21046;-84
2021/07/29 14:08:36;;;;;;;4.83;3.00;;;;;;;26.48;51.39;98670.95;4190203;84;21500;-84
2021/07/29 14:14:45;;;;;;;4.05;2.62;;;;;;;26.47;51.77;98670.03;4196006;84;21072;-84
2021/07/29 14:20:57;;;;;;;3.80;2.67;;;;;;;26.40;51.96;98661.39;4208359;83;21605;-84
2021/07/29 14:26:50;;;;;;;5.85;2.52;;;;;;;26.47;51.31;98663.02;4205790;83;21063;-84
2021/07/29 14:32:51;;;;;;;5.30;3.10;;;;;;;26.48;51.36;98654.11;4131703;84;28024;-84
2021/07/29 14:38:54;;;;;;;3.90;2.95;;;;;;;26.48;49.18;98645.69;4095296;85;21545;-84
2021/07/29 14:45:12;;;;;;;5.28;2.95;;;;;;;26.48;50.13;98652.70;4098934;85;21012;-83
2021/07/29 14:51:02;;;;;;;4.58;2.65;;;;;;;26.50;50.81;98647.35;4091860;85;21585;-84
2021/07/29 14:57:10;;;;;;;7.72;3.40;;;;;;;26.50;50.37;98639.59;4096888;85;21108;-84
2021/07/29 16:13:00;;;;;;;4.58;4.05;;;;;;;25.60;51.61;98602.27;3948753;88;21617;-85
2021/07/29 16:19:06;;;;;;;6.00;3.35;;;;;;;25.54;51.95;98602.16;3934596;87;21565;-85
2021/07/29 16:25:09;;;;;;;4.17;3.08;;;;;;;25.43;52.74;98607.60;3972407;88;21074;-85
2021/07/29 16:31:10;;;;;;;4.85;2.85;;;;;;;25.35;52.04;98602.86;3953814;88;21115;-85
2021/07/29 16:37:11;;;;;;;5.10;3.12;;;;;;;25.36;51.53;98601.59;3969638;87;21029;-85
2021/07/29 16:43:12;;;;;;;6.47;2.72;;;;;;;25.31;51.53;98601.61;3973447;87;21126;-84
2021/07/29 16:49:16;;;;;;;6.45;3.45;;;;;;;25.24;52.28;98605.44;4016515;86;21104;-86
2021/07/29 16:55:17;;;;;;;4.35;3.00;;;;;;;25.14;52.21;98602.56;3987743;87;21596;-85
2021/07/29 17:01:19;;;;;;;3.98;2.90;;;;;;;25.01;52.59;98609.84;3975430;87;21163;-85
2021/07/29 17:07:20;;;;;;;4.92;3.55;;;;;;;24.91;53.72;98609.80;4012310;86;21071;-85
2021/07/29 17:13:22;;;;;;;6.00;4.20;;;;;;;24.74;54.29;98606.52;3990787;86;21073;-84
2021/07/29 17:19:26;;;;;;;5.87;3.25;;;;;;;24.61;54.59;98598.35;4007452;87;21102;-85
2021/07/29 17:25:26;;;;;;;6.62;3.87;;;;;;;24.49;55.18;98607.13;3996258;86;21114;-85
2021/07/29 17:31:27;;;;;;;6.03;4.08;;;;;;;24.42;55.69;98610.31;4019884;86;21559;-85
2021/07/29 17:37:35;;;;;;;7.30;4.58;;;;;;;24.32;56.15;98611.61;3989299;87;21064;-85
2021/07/29 17:43:37;;;;;;;5.85;4.10;;;;;;;24.18;56.82;98613.72;3998232;86;21131;-85
2021/07/29 17:49:38;;;;;;;10.13;4.92;;;;;;;24.04;57.68;98606.03;4020890;86;21037;-85
2021/07/29 17:55:41;;;;;;;5.75;3.58;;;;;;;23.92;57.42;98605.61;4007062;87;21028;-85
2021/07/29 18:01:43;;;;;;;9.45;4.37;;;;;;;23.82;57.49;98604.73;4011999;86;21049;-85
2021/07/29 18:07:45;;;;;;;6.33;4.35;;;;;;;23.70;57.36;98607.88;4015301;86;21608;-85
2021/07/29 18:13:46;;;;;;;5.87;4.72;;;;;;;23.58;57.52;98610.26;4014393;86;21124;-85
2021/07/29 18:19:49;;;;;;;10.00;4.90;;;;;;;23.45;58.06;98611.69;4030467;86;21032;-85
2021/07/29 18:25:51;;;;;;;9.13;5.08;;;;;;;23.31;58.18;98615.92;4004376;86;21043;-85
2021/07/29 18:31:55;;;;;;;6.92;4.80;;;;;;;23.14;58.80;98627.25;4029481;86;21594;-85
2021/07/29 18:37:57;;;;;;;9.05;5.20;;;;;;;22.96;59.07;98627.25;4013338;86;21634;-85
2021/07/29 18:43:58;;;;;;;10.15;5.12;;;;;;;22.83;59.76;98630.20;4004387;86;21179;-85
2021/07/29 18:49:59;;;;;;;6.20;4.72;;;;;;;22.67;60.36;98629.14;4017437;86;21081;-84
2021/07/29 18:56:00;;;;;;;10.75;5.15;;;;;;;22.52;60.54;98649.73;4007323;87;21125;-84
2021/07/29 19:02:03;;;;;;;8.20;5.40;;;;;;;22.41;61.25;98654.31;3898281;86;10000028;-85
2021/07/29 19:08:08;;;;;;;11.97;7.00;;;;;;;22.32;62.01;98667.47;3988781;86;21952;-84
2021/07/29 19:14:11;;;;;;;10.80;6.58;;;;;;;22.18;61.88;98667.44;3998430;86;21069;-84
2021/07/29 19:20:14;;;;;;;10.18;6.90;;;;;;;22.00;61.94;98677.14;3968957;87;21101;-85
2021/07/29 19:26:16;;;;;;;12.13;7.58;;;;;;;21.88;62.32;98680.03;4041251;86;20996;-84
2021/07/29 19:32:23;;;;;;;12.23;7.95;;;;;;;21.82;62.83;98681.84;4054704;88;21542;-84
2021/07/29 19:38:24;;;;;;;13.30;7.55;;;;;;;21.71;62.98;98685.02;4112799;85;21014;-84
2021/07/29 19:44:25;;;;;;;11.40;7.42;;;;;;;21.59;63.14;98694.23;4086637;85;21023;-84
2021/07/29 19:50:27;;;;;;;12.88;7.08;;;;;;;21.40;64.09;98694.75;4099050;85;21610;-84
2021/07/29 19:56:29;;;;;;;12.43;8.00;;;;;;;21.16;64.98;98706.77;4091055;85;21075;-84
2021/07/29 20:02:33;;;;;;;11.93;7.78;;;;;;;20.86;65.36;98710.97;3953938;85;9999846;-85
2021/07/29 20:08:34;;;;;;;12.00;7.75;;;;;;;20.63;65.89;98706.42;4076198;85;21087;-85
2021/07/29 20:14:37;;;;;;;18.27;9.00;;;;;;;20.46;66.24;98703.63;4124266;85;21031;-84
2021/07/29 20:20:40;;;;;;;16.62;8.15;;;;;;;20.26;66.95;98715.00;4106435;85;20984;-84
2021/07/29 20:26:42;;;;;;;13.78;9.58;;;;;;;20.04;67.67;98707.94;4100779;87;21471;-85
2021/07/29 20:32:45;;;;;;;15.50;9.65;;;;;;;19.88;68.10;98703.86;4099704;85;21035;-84
2021/07/29 20:38:46;;;;;;;17.77;9.03;;;;;;;19.74;68.30;98707.67;4097132;85;21674;-84
2021/07/29 20:44:48;;;;;;;13.78;8.85;;;;;;;19.57;68.94;98707.00;4104152;85;22096;-84
2021/07/29 20:50:49;;;;;;;16.48;8.75;;;;;;;19.43;69.58;98714.95;4082637;85;21312;-84
2021/07/29 20:56:50;;;;;;;13.10;7.95;;;;;;;19.30;69.89;98715.52;4093538;85;21095;-85
2021/07/29 21:02:51;;;;;;;15.75;8.13;;;;;;;19.18;71.06;98713.45;4105741;85;21093;-83
2021/07/29 21:08:52;;;;;;;12.88;7.53;;;;;;;19.05;71.32;98711.23;4081606;85;21095;-84
2021/07/29 21:14:54;;;;;;;11.63;7.42;;;;;;;18.96;72.06;98718.02;4100819;85;21571;-84
2021/07/29 21:20:56;;;;;;;11.40;7.10;;;;;;;18.91;72.02;98722.11;4093875;85;21038;-83
2021/07/29 21:26:58;;;;;;;12.82;6.95;;;;;;;18.87;72.72;98722.03;4085977;85;21079;-84
2021/07/29 21:33:03;;;;;;;12.18;7.17;;;;;;;18.89;73.58;98724.53;4097848;85;21054;-85
2021/07/29 21:39:04;;;;;;;11.38;6.80;;;;;;;18.77;73.69;98730.80;4083062;85;21551;-83
2021/07/29 21:45:11;;;;;;;10.72;6.47;;;;;;;18.63;73.85;98736.11;4101852;84;21031;-83
2021/07/29 21:51:15;;;;;;;12.68;7.33;;;;;;;18.57;73.79;98732.28;4108320;85;21060;-83
2021/07/29 21:57:16;;;;;;;13.45;6.50;;;;;;;18.44;74.57;98731.44;4076257;85;21099;-83
2021/07/29 22:03:20;;;;;;;10.68;6.15;;;;;;;18.42;75.15;98734.45;4096147;85;21766;-84
2021/07/29 22:09:21;;;;;;;10.78;6.95;;;;;;;18.33;75.32;98740.59;4093702;85;21090;-83
2021/07/29 22:15:24;;;;;;;8.35;5.97;;;;;;;18.24;75.60;98735.47;4089843;85;21016;-84
2021/07/29 22:21:25;;;;;;;13.35;6.05;;;;;;;18.20;76.10;98731.98;4104243;85;21075;-83
2021/07/29 22:27:27;;;;;;;12.78;6.83;;;;;;;18.17;75.90;98731.46;4091536;85;21078;-84
2021/07/29 22:33:28;;;;;;;15.90;6.00;;;;;;;18.17;76.62;98722.55;3975685;86;21641;-84
2021/07/29 22:39:30;;;;;;;10.60;7.12;;;;;;;18.22;77.32;98726.80;4014806;86;21079;-83
2021/07/29 22:45:31;;;;;;;15.98;6.65;;;;;;;18.10;77.02;98722.70;4102348;85;21043;-83
2021/07/29 22:51:32;;;;;;;10.75;6.17;;;;;;;18.00;77.31;98733.45;4092723;85;21472;-84
2021/07/29 22:57:34;;;;;;;11.93;5.87;;;;;;;17.83;77.71;98719.99;4086631;85;21049;-83
2021/07/29 23:03:35;;;;;;;9.08;5.87;;;;;;;17.66;78.04;98722.55;4098287;85;21003;-84
2021/07/29 23:09:37;;;;;;;12.13;6.62;;;;;;;17.62;78.71;98714.31;4087714;85;21028;-83
2021/07/29 23:15:41;;;;;;;10.70;6.47;;;;;;;17.69;79.01;98721.09;4102356;85;21146;-83
2021/07/29 23:21:43;;;;;;;13.22;8.10;;;;;;;17.74;79.10;98717.03;4066545;85;21247;-83
2021/07/29 23:34:04;;;;;;;17.55;8.30;;;;;;;17.48;79.39;98711.09;4095021;85;21063;-84
2021/07/29 23:40:07;;;;;;;16.62;9.50;;;;;;;17.31;79.75;98709.41;4093954;85;21022;-83
2021/07/29 23:46:10;;;;;;;21.35;12.07;;;;;;;17.18;80.22;98713.41;4093016;85;21390;-83
2021/07/29 23:52:12;;;;;;;24.70;15.18;;;;;;;17.22;80.61;98711.38;4122410;83;21050;-84
2021/07/29 23:58:14;;;;;;;22.07;13.48;;;;;;;17.24;80.69;98707.59;4099932;85;21144;-83
